createdAt,value
2022-10-05T00:00:14.992Z,85.00
2022-10-05T00:02:42.977Z,85.18
2022-10-05T00:05:21.781Z,85.39
2022-10-05T00:07:51.970Z,84.84
2022-10-05T00:10:25.689Z,84.33
2022-10-05T00:12:53.393Z,84.88
2022-10-05T00:15:22.295Z,85.01
2022-10-05T00:17:50.164Z,85.22
2022-10-05T00:20:21.951Z,85.24
2022-10-05T00:22:56.645Z,84.77
2022-10-05T00:25:25.288Z,84.78
2022-10-05T00:27:57.583Z,84.91
2022-10-05T00:30:27.552Z,85.31
2022-10-05T00:32:59.478Z,85.43
2022-10-05T00:35:29.239Z,86.19
2022-10-05T00:37:58.537Z,86.26
2022-10-05T00:40:36.483Z,86.87
2022-10-05T00:43:19.479Z,87.19
2022-10-05T00:45:51.860Z,86.23
2022-10-05T00:48:27.447Z,86.20
2022-10-05T00:51:06.102Z,86.13
2022-10-05T00:53:44.351Z,86.02
2022-10-05T00:56:29.797Z,86.12
2022-10-05T00:59:09.388Z,87.02
2022-10-05T01:01:45.827Z,86.96
2022-10-05T01:04:21.170Z,86.61
2022-10-05T01:07:00.407Z,86.86
2022-10-05T01:09:37.804Z,86.08
2022-10-05T01:12:14.523Z,86.34
2022-10-05T01:14:53.259Z,86.30
2022-10-05T01:17:26.225Z,86.86
2022-10-05T01:20:16.027Z,87.19
2022-10-05T01:23:05.277Z,87.08
2022-10-05T01:25:49.490Z,86.65
2022-10-05T01:28:25.013Z,86.84
2022-10-05T01:31:02.289Z,86.50
2022-10-05T01:33:35.377Z,86.71
2022-10-05T01:36:12.337Z,86.84
2022-10-05T01:38:50.154Z,86.79
2022-10-05T01:41:26.650Z,86.95
2022-10-05T01:44:03.597Z,87.20
2022-10-05T01:46:39.301Z,86.59
2022-10-05T01:49:23.562Z,86.57
2022-10-05T01:52:02.978Z,86.60
2022-10-05T01:54:45.261Z,86.49
2022-10-05T01:57:21.596Z,86.68
2022-10-05T02:00:03.354Z,86.63
2022-10-05T02:02:46.765Z,86.97
2022-10-05T02:05:19.474Z,86.86
2022-10-05T02:07:50.515Z,86.83
2022-10-05T02:10:24.922Z,87.77
2022-10-05T02:12:58.486Z,87.39
2022-10-05T02:15:33.530Z,87.80
2022-10-05T02:18:08.801Z,87.41
2022-10-05T02:20:41.130Z,88.04
2022-10-05T02:23:13.774Z,87.39
2022-10-05T02:25:46.144Z,87.55
2022-10-05T02:28:19.290Z,86.79
2022-10-05T02:30:55.790Z,86.60
2022-10-05T02:33:28.616Z,86.09
2022-10-05T02:36:03.052Z,86.10
2022-10-05T02:38:39.665Z,86.18
2022-10-05T02:41:14.969Z,86.03
2022-10-05T02:43:53.996Z,86.33
2022-10-05T02:46:33.816Z,86.74
2022-10-05T02:49:13.903Z,86.40
2022-10-05T02:51:49.854Z,86.96
2022-10-05T02:54:33.574Z,86.85
2022-10-05T02:57:05.851Z,87.24
2022-10-05T02:59:39.996Z,86.70
2022-10-05T03:02:19.003Z,86.96
2022-10-05T03:04:57.161Z,86.83
2022-10-05T03:07:31.605Z,86.50
2022-10-05T03:10:07.466Z,86.53
2022-10-05T03:12:53.329Z,87.13
2022-10-05T03:15:39.324Z,86.93
2022-10-05T03:18:19.071Z,86.98
2022-10-05T03:20:53.063Z,86.82
2022-10-05T03:23:29.141Z,86.38
2022-10-05T03:26:13.913Z,86.50
2022-10-05T03:28:55.771Z,86.16
2022-10-05T03:31:31.288Z,86.84
2022-10-05T03:34:07.459Z,86.46
2022-10-05T03:36:41.182Z,86.01
2022-10-05T03:39:13.944Z,86.45
2022-10-05T03:41:50.029Z,86.11
2022-10-05T03:44:31.380Z,86.12
2022-10-05T03:47:09.070Z,86.03
2022-10-05T03:50:03.963Z,85.67
2022-10-05T03:52:37.573Z,85.99
2022-10-05T03:55:16.736Z,85.52
2022-10-05T03:57:46.867Z,85.32
2022-10-05T04:00:18.115Z,84.74
2022-10-05T04:02:57.835Z,83.84
2022-10-05T04:05:31.528Z,84.05
2022-10-05T04:08:05.789Z,84.06
2022-10-05T04:10:42.941Z,83.89
2022-10-05T04:13:17.852Z,84.51
2022-10-05T04:15:51.475Z,84.69
2022-10-05T04:18:27.103Z,84.01
2022-10-05T04:21:01.500Z,84.14
2022-10-05T04:23:40.667Z,84.00
2022-10-05T04:26:15.339Z,82.75
2022-10-05T04:28:51.322Z,82.87
2022-10-05T04:31:35.878Z,82.21
2022-10-05T04:34:16.482Z,82.56
2022-10-05T04:36:52.146Z,82.98
2022-10-05T04:39:28.082Z,82.87
2022-10-05T04:42:09.354Z,83.43
2022-10-05T04:44:57.112Z,83.09
2022-10-05T04:47:55.985Z,83.65
2022-10-05T04:50:35.151Z,84.03
2022-10-05T04:53:16.325Z,83.89
2022-10-05T04:55:54.546Z,84.29
2022-10-05T04:58:42.283Z,84.16
2022-10-05T05:01:27.482Z,84.94
2022-10-05T05:04:15.959Z,84.76
2022-10-05T05:06:52.233Z,85.00
2022-10-05T05:09:48.670Z,85.14
2022-10-05T05:12:26.251Z,85.71
2022-10-05T05:15:08.074Z,85.24
2022-10-05T05:17:50.311Z,85.63
2022-10-05T05:20:28.611Z,85.26
2022-10-05T05:23:06.269Z,85.49
2022-10-05T05:25:47.514Z,85.53
2022-10-05T05:28:26.057Z,84.83
2022-10-05T05:31:01.714Z,84.95
2022-10-05T05:33:40.865Z,84.95
2022-10-05T05:36:25.327Z,84.79
2022-10-05T05:39:20.192Z,85.15
2022-10-05T05:42:00.492Z,84.97
2022-10-05T05:44:38.581Z,84.93
2022-10-05T05:47:18.857Z,85.05
2022-10-05T05:50:06.952Z,84.98
2022-10-05T05:52:42.557Z,84.66
2022-10-05T05:55:18.938Z,83.73
2022-10-05T05:57:55.660Z,83.24
2022-10-05T06:00:27.657Z,83.15
2022-10-05T06:03:05.727Z,83.06
2022-10-05T06:05:39.435Z,82.77
2022-10-05T06:08:14.853Z,83.26
2022-10-05T06:10:49.128Z,83.66
2022-10-05T06:13:24.185Z,84.04
2022-10-05T06:15:56.936Z,83.77
2022-10-05T06:18:26.357Z,83.47
2022-10-05T06:21:01.834Z,83.47
2022-10-05T06:23:38.929Z,83.42
2022-10-05T06:26:16.159Z,83.43
2022-10-05T06:28:51.175Z,82.78
2022-10-05T06:31:33.468Z,82.87
2022-10-05T06:34:14.577Z,83.71
2022-10-05T06:36:49.742Z,82.87
2022-10-05T06:39:36.967Z,82.79
2022-10-05T06:42:18.062Z,83.31
2022-10-05T06:45:21.937Z,82.08
2022-10-05T06:48:11.906Z,81.67
2022-10-05T06:51:10.859Z,81.45
2022-10-05T06:53:56.962Z,80.71
2022-10-05T06:56:31.883Z,80.56
2022-10-05T06:59:07.388Z,79.95
2022-10-05T07:01:52.598Z,79.55
2022-10-05T07:04:37.078Z,79.51
2022-10-05T07:07:15.755Z,79.42
2022-10-05T07:09:57.947Z,79.43
2022-10-05T07:12:41.366Z,78.57
2022-10-05T07:15:43.043Z,78.15
2022-10-05T07:18:32.027Z,77.92
2022-10-05T07:21:05.790Z,77.89
2022-10-05T07:23:48.985Z,77.70
2022-10-05T07:26:24.102Z,77.12
2022-10-05T07:29:10.652Z,76.89
2022-10-05T07:31:47.720Z,76.12
2022-10-05T07:34:23.014Z,75.86
2022-10-05T07:37:14.465Z,75.60
2022-10-05T07:40:02.702Z,74.42
2022-10-05T07:42:50.620Z,73.08
2022-10-05T07:45:29.271Z,73.49
2022-10-05T07:48:00.170Z,71.91
2022-10-05T07:50:36.831Z,71.74
2022-10-05T07:53:13.822Z,71.42
2022-10-05T07:55:47.697Z,70.61
2022-10-05T07:58:22.569Z,69.12
2022-10-05T08:01:01.438Z,69.24
2022-10-05T08:03:41.769Z,68.78
2022-10-05T08:06:28.758Z,68.05
2022-10-05T08:09:03.038Z,67.74
2022-10-05T08:11:34.715Z,67.63
2022-10-05T08:14:10.906Z,67.46
2022-10-05T08:16:39.713Z,66.21
2022-10-05T08:19:17.559Z,67.13
2022-10-05T08:21:51.989Z,67.18
2022-10-05T08:24:40.211Z,67.15
2022-10-05T08:27:16.469Z,66.38
2022-10-05T08:29:56.214Z,63.51
2022-10-05T08:32:26.695Z,63.43
2022-10-05T08:34:59.793Z,63.71
2022-10-05T08:37:32.530Z,64.02
2022-10-05T08:40:26.666Z,63.25
2022-10-05T08:43:06.896Z,63.10
2022-10-05T08:46:01.647Z,62.46
2022-10-05T08:48:57.935Z,62.47
2022-10-05T08:51:42.308Z,62.31
2022-10-05T08:54:31.187Z,61.16
2022-10-05T08:57:20.368Z,60.74
2022-10-05T09:00:05.941Z,58.80
2022-10-05T09:02:56.553Z,59.46
2022-10-05T09:05:58.211Z,58.50
2022-10-05T09:08:53.067Z,57.96
2022-10-05T09:11:26.635Z,56.87
2022-10-05T09:14:12.191Z,58.37
2022-10-05T09:16:49.017Z,57.17
2022-10-05T09:19:46.451Z,55.73
2022-10-05T09:22:17.547Z,57.09
2022-10-05T09:24:57.042Z,57.66
2022-10-05T09:27:38.097Z,57.42
2022-10-05T09:30:26.833Z,57.01
2022-10-05T09:33:23.697Z,57.83
2022-10-05T09:36:20.422Z,58.56
2022-10-05T09:39:16.259Z,57.76
2022-10-05T09:42:07.097Z,57.34
2022-10-05T09:45:06.082Z,57.54
2022-10-05T09:48:12.145Z,56.96
2022-10-05T09:51:13.302Z,58.70
2022-10-05T09:54:05.402Z,59.29
2022-10-05T09:56:56.370Z,56.71
2022-10-05T10:00:08.606Z,57.53
2022-10-05T10:03:18.866Z,57.38
2022-10-05T10:06:13.991Z,55.59
2022-10-05T10:08:56.342Z,54.32
2022-10-05T10:11:42.818Z,54.74
2022-10-05T10:14:39.265Z,54.09
2022-10-05T10:17:21.408Z,52.84
2022-10-05T10:20:27.180Z,53.32
2022-10-05T10:23:25.211Z,51.04
2022-10-05T10:26:16.156Z,52.16
2022-10-05T10:29:11.180Z,50.47
2022-10-05T10:31:51.914Z,50.29
2022-10-05T10:34:42.627Z,49.89
2022-10-05T10:37:36.445Z,51.95
2022-10-05T10:40:27.075Z,53.16
2022-10-05T10:43:22.649Z,53.21
2022-10-05T10:46:01.292Z,55.49
2022-10-05T10:48:53.841Z,54.66
2022-10-05T10:51:47.841Z,54.51
2022-10-05T10:54:36.132Z,55.96
2022-10-05T10:57:10.610Z,56.54
2022-10-05T11:00:06.189Z,55.10
2022-10-05T11:02:55.455Z,55.80
2022-10-05T11:05:33.751Z,54.97
2022-10-05T11:08:27.337Z,55.93
2022-10-05T11:11:31.438Z,53.25
2022-10-05T11:14:12.283Z,53.26
2022-10-05T11:17:11.271Z,53.42
2022-10-05T11:20:05.072Z,52.86
2022-10-05T11:22:54.990Z,54.28
2022-10-05T11:26:04.713Z,54.03
2022-10-05T11:28:43.338Z,54.25
2022-10-05T11:31:37.723Z,53.96
2022-10-05T11:34:51.509Z,53.86
2022-10-05T11:37:50.795Z,56.57
2022-10-05T11:40:34.326Z,54.92
2022-10-05T11:43:26.715Z,56.57
2022-10-05T11:46:07.541Z,54.34
2022-10-05T11:48:48.055Z,55.07
2022-10-05T11:51:38.218Z,54.64
2022-10-05T11:54:58.741Z,55.14
2022-10-05T11:57:33.127Z,56.34
2022-10-05T12:00:07.785Z,55.61
2022-10-05T12:03:09.846Z,56.21
2022-10-05T12:05:50.621Z,53.55
2022-10-05T12:08:29.525Z,55.14
2022-10-05T12:11:07.331Z,56.17
2022-10-05T12:13:44.815Z,52.71
2022-10-05T12:16:19.343Z,54.63
2022-10-05T12:18:56.238Z,53.65
2022-10-05T12:21:34.335Z,53.38
2022-10-05T12:24:09.819Z,52.39
2022-10-05T12:26:41.594Z,54.54
2022-10-05T12:29:17.789Z,55.04
2022-10-05T12:31:55.681Z,56.04
2022-10-05T12:34:36.784Z,55.91
2022-10-05T12:37:12.507Z,56.46
2022-10-05T12:39:47.096Z,57.11
2022-10-05T12:42:26.914Z,55.95
2022-10-05T12:45:17.664Z,55.03
2022-10-05T12:48:02.609Z,55.41
2022-10-05T12:50:36.717Z,53.99
2022-10-05T12:53:22.761Z,54.21
2022-10-05T12:55:56.296Z,55.90
2022-10-05T12:58:35.752Z,54.67
2022-10-05T13:01:13.003Z,55.50
2022-10-05T13:03:51.501Z,55.15
2022-10-05T13:06:28.768Z,55.27
2022-10-05T13:09:02.391Z,56.46
2022-10-05T13:11:37.232Z,58.77
2022-10-05T13:14:18.347Z,57.05
2022-10-05T13:16:56.551Z,56.36
2022-10-05T13:19:39.700Z,55.84
2022-10-05T13:22:28.787Z,52.93
2022-10-05T13:25:09.317Z,54.07
2022-10-05T13:27:41.813Z,53.55
2022-10-05T13:30:15.896Z,55.85
2022-10-05T13:32:47.920Z,53.69
2022-10-05T13:35:44.887Z,53.43
2022-10-05T13:38:27.300Z,55.07
2022-10-05T13:41:05.426Z,54.93
2022-10-05T13:43:40.979Z,53.08
2022-10-05T13:46:18.418Z,56.18
2022-10-05T13:49:00.637Z,53.93
2022-10-05T13:51:37.346Z,53.53
2022-10-05T13:54:19.009Z,53.61
2022-10-05T13:56:52.477Z,54.46
2022-10-05T13:59:30.689Z,53.11
2022-10-05T14:02:01.739Z,53.44
2022-10-05T14:04:43.409Z,53.46
2022-10-05T14:07:24.800Z,54.34
2022-10-05T14:09:55.032Z,54.91
2022-10-05T14:12:24.569Z,54.94
2022-10-05T14:14:54.671Z,55.58
2022-10-05T14:17:40.933Z,55.30
2022-10-05T14:20:22.944Z,55.51
2022-10-05T14:22:57.319Z,55.32
2022-10-05T14:25:28.074Z,54.52
2022-10-05T14:28:03.991Z,54.17
2022-10-05T14:30:33.920Z,53.25
2022-10-05T14:33:15.135Z,53.13
2022-10-05T14:35:49.091Z,53.06
2022-10-05T14:38:22.442Z,54.33
2022-10-05T14:41:18.776Z,53.99
2022-10-05T14:43:55.986Z,53.67
2022-10-05T14:46:28.465Z,54.25
2022-10-05T14:49:14.326Z,53.91
2022-10-05T14:51:43.268Z,54.19
2022-10-05T14:54:27.699Z,54.43
2022-10-05T14:57:06.178Z,54.20
2022-10-05T15:00:00.273Z,54.12
2022-10-05T15:02:49.982Z,54.55
2022-10-05T15:05:25.038Z,54.28
2022-10-05T15:07:57.175Z,54.22
2022-10-05T15:10:34.456Z,54.25
2022-10-05T15:13:13.087Z,54.72
2022-10-05T15:15:48.826Z,54.92
2022-10-05T15:18:31.657Z,54.92
2022-10-05T15:21:17.599Z,54.80
2022-10-05T15:23:52.790Z,54.80
2022-10-05T15:26:43.897Z,54.95
2022-10-05T15:29:35.123Z,55.39
2022-10-05T15:32:14.978Z,55.32
2022-10-05T15:34:55.527Z,55.20
2022-10-05T15:37:28.214Z,56.60
2022-10-05T15:39:58.888Z,58.38
2022-10-05T15:42:34.879Z,58.74
2022-10-05T15:45:13.569Z,59.22
2022-10-05T15:47:49.009Z,59.74
2022-10-05T15:50:24.264Z,59.53
2022-10-05T15:52:57.208Z,58.13
2022-10-05T15:55:36.767Z,57.95
2022-10-05T15:58:20.200Z,58.80
2022-10-05T16:00:53.277Z,57.82
2022-10-05T16:03:27.349Z,58.67
2022-10-05T16:06:18.530Z,59.83
2022-10-05T16:09:04.312Z,60.24
2022-10-05T16:11:59.889Z,60.94
2022-10-05T16:14:38.490Z,60.41
2022-10-05T16:17:24.167Z,60.03
2022-10-05T16:20:04.502Z,60.41
2022-10-05T16:22:43.408Z,60.71
2022-10-05T16:25:21.462Z,61.61
2022-10-05T16:28:05.324Z,61.44
2022-10-05T16:30:48.032Z,60.79
2022-10-05T16:33:23.654Z,60.68
2022-10-05T16:36:03.778Z,60.27
2022-10-05T16:38:43.592Z,60.72
2022-10-05T16:41:17.911Z,61.54
2022-10-05T16:43:51.895Z,61.86
2022-10-05T16:46:29.006Z,62.63
2022-10-05T16:49:07.855Z,63.18
2022-10-05T16:51:46.053Z,63.90
2022-10-05T16:54:19.529Z,64.11
2022-10-05T16:56:53.459Z,64.55
2022-10-05T16:59:53.547Z,64.42
2022-10-05T17:02:34.944Z,65.26
2022-10-05T17:05:20.333Z,64.68
2022-10-05T17:08:16.118Z,63.20
2022-10-05T17:10:59.078Z,62.42
2022-10-05T17:13:41.858Z,61.78
2022-10-05T17:16:15.919Z,61.52
2022-10-05T17:19:19.214Z,60.56
2022-10-05T17:21:59.123Z,61.01
2022-10-05T17:24:35.408Z,60.96
2022-10-05T17:27:20.366Z,61.08
2022-10-05T17:29:52.335Z,61.43
2022-10-05T17:32:55.914Z,60.94
2022-10-05T17:35:43.739Z,61.79
2022-10-05T17:38:20.212Z,61.85
2022-10-05T17:41:15.930Z,62.03
2022-10-05T17:44:20.108Z,62.46
2022-10-05T17:46:49.891Z,62.48
2022-10-05T17:49:26.671Z,62.44
2022-10-05T17:52:21.796Z,62.93
2022-10-05T17:55:19.803Z,62.70
2022-10-05T17:57:47.954Z,63.56
2022-10-05T18:00:50.687Z,63.88
2022-10-05T18:03:40.870Z,63.94
2022-10-05T18:06:44.869Z,64.55
2022-10-05T18:09:32.922Z,64.72
2022-10-05T18:12:25.449Z,64.79
2022-10-05T18:15:13.871Z,65.09
2022-10-05T18:17:45.286Z,65.49
2022-10-05T18:20:19.007Z,65.68
2022-10-05T18:22:47.316Z,66.05
2022-10-05T18:25:25.903Z,66.49
2022-10-05T18:28:14.802Z,66.97
2022-10-05T18:30:59.867Z,67.46
2022-10-05T18:33:47.711Z,68.08
2022-10-05T18:36:38.209Z,68.30
2022-10-05T18:39:21.687Z,68.55
2022-10-05T18:42:01.603Z,68.05
2022-10-05T18:44:40.409Z,67.61
2022-10-05T18:47:16.283Z,67.24
2022-10-05T18:50:00.887Z,67.18
2022-10-05T18:52:41.407Z,67.08
2022-10-05T18:55:18.268Z,66.86
2022-10-05T18:58:01.640Z,66.61
2022-10-05T19:00:44.333Z,66.64
2022-10-05T19:03:20.435Z,66.21
2022-10-05T19:05:56.162Z,66.25
2022-10-05T19:08:33.973Z,66.59
2022-10-05T19:11:09.422Z,66.79
2022-10-05T19:13:46.704Z,67.36
2022-10-05T19:16:32.406Z,68.18
2022-10-05T19:19:14.720Z,68.79
2022-10-05T19:21:49.897Z,69.29
2022-10-05T19:24:56.927Z,69.92
2022-10-05T19:27:37.580Z,70.42
2022-10-05T19:30:15.480Z,70.36
2022-10-05T19:32:59.764Z,70.54
2022-10-05T19:35:34.684Z,70.81
2022-10-05T19:38:16.587Z,71.46
2022-10-05T19:40:56.258Z,71.35
2022-10-05T19:43:43.492Z,71.59
2022-10-05T19:46:21.367Z,72.00
2022-10-05T19:48:53.877Z,72.32
2022-10-05T19:51:29.377Z,72.53
2022-10-05T19:54:00.922Z,72.52
2022-10-05T19:56:34.097Z,72.74
2022-10-05T19:59:13.075Z,72.66
2022-10-05T20:01:44.671Z,72.83
2022-10-05T20:04:16.269Z,72.75
2022-10-05T20:06:44.362Z,72.93
2022-10-05T20:09:22.425Z,72.61
2022-10-05T20:11:52.012Z,72.70
2022-10-05T20:14:21.826Z,72.65
2022-10-05T20:17:07.287Z,72.26
2022-10-05T20:19:57.617Z,72.06
2022-10-05T20:22:27.760Z,71.90
2022-10-05T20:24:57.235Z,71.47
2022-10-05T20:27:46.510Z,70.77
2022-10-05T20:30:17.337Z,70.08
2022-10-05T20:32:47.692Z,69.73
2022-10-05T20:35:17.061Z,69.31
2022-10-05T20:37:45.060Z,69.17
2022-10-05T20:40:14.737Z,68.96
2022-10-05T20:42:42.447Z,68.67
2022-10-05T20:45:11.500Z,68.51
2022-10-05T20:47:40.359Z,68.60
2022-10-05T20:50:10.065Z,68.30
2022-10-05T20:52:39.600Z,68.14
2022-10-05T20:55:09.890Z,67.97
2022-10-05T20:57:42.439Z,68.23
2022-10-05T21:00:11.513Z,68.10
2022-10-05T21:02:39.449Z,68.27
2022-10-05T21:05:08.312Z,67.94
2022-10-05T21:07:36.334Z,67.95
2022-10-05T21:10:06.631Z,67.80
2022-10-05T21:12:34.946Z,68.10
2022-10-05T21:15:04.623Z,67.98
2022-10-05T21:17:34.596Z,67.91
2022-10-05T21:20:02.595Z,67.96
2022-10-05T21:22:30.297Z,67.69
2022-10-05T21:24:58.387Z,67.77
2022-10-05T21:27:28.488Z,68.00
2022-10-05T21:29:56.181Z,67.95
2022-10-05T21:32:24.136Z,68.45
2022-10-05T21:34:51.813Z,69.31
2022-10-05T21:37:20.337Z,69.81
2022-10-05T21:39:47.985Z,69.20
2022-10-05T21:42:15.683Z,68.97
2022-10-05T21:44:44.697Z,68.94
2022-10-05T21:47:12.634Z,69.31
2022-10-05T21:49:40.325Z,69.44
2022-10-05T21:52:08.853Z,69.54
2022-10-05T21:54:37.198Z,69.26
2022-10-05T21:57:05.771Z,69.17
2022-10-05T21:59:35.445Z,69.69
2022-10-05T22:02:05.208Z,69.55
2022-10-05T22:04:32.923Z,69.61
2022-10-05T22:07:01.585Z,69.63
2022-10-05T22:09:29.304Z,69.43
2022-10-05T22:11:57.477Z,69.37
2022-10-05T22:14:25.289Z,69.22
2022-10-05T22:16:54.450Z,69.43
2022-10-05T22:19:23.622Z,69.45
2022-10-05T22:21:51.979Z,69.39
2022-10-05T22:24:19.673Z,69.28
2022-10-05T22:26:51.872Z,69.10
2022-10-05T22:29:20.317Z,69.44
2022-10-05T22:31:49.470Z,69.03
2022-10-05T22:34:18.013Z,69.06
2022-10-05T22:36:48.042Z,69.14
2022-10-05T22:39:15.965Z,69.75
2022-10-05T22:41:44.178Z,70.46
2022-10-05T22:44:11.930Z,70.84
2022-10-05T22:46:39.976Z,70.93
2022-10-05T22:49:07.790Z,71.33
2022-10-05T22:51:35.760Z,71.86
2022-10-05T22:54:04.990Z,72.62
2022-10-05T22:56:33.430Z,73.05
2022-10-05T22:59:01.158Z,72.47
2022-10-05T23:01:29.368Z,72.34
2022-10-05T23:03:57.289Z,72.40
2022-10-05T23:06:26.957Z,72.49
2022-10-05T23:08:55.550Z,72.67
2022-10-05T23:11:26.053Z,72.62
2022-10-05T23:13:55.616Z,72.54
2022-10-05T23:16:26.446Z,72.94
2022-10-05T23:18:55.216Z,72.92
2022-10-05T23:21:25.163Z,73.20
2022-10-05T23:23:52.934Z,73.54
2022-10-05T23:26:22.422Z,73.75
2022-10-05T23:28:51.947Z,74.66
2022-10-05T23:31:21.708Z,74.95
2022-10-05T23:33:49.703Z,75.10
2022-10-05T23:36:19.658Z,75.41
2022-10-05T23:38:48.070Z,75.63
2022-10-05T23:41:17.010Z,76.31
2022-10-05T23:43:45.154Z,76.68
2022-10-05T23:46:15.128Z,77.16
2022-10-05T23:48:42.927Z,77.55
2022-10-05T23:51:13.404Z,78.01
2022-10-05T23:53:41.211Z,78.39
2022-10-05T23:56:09.345Z,78.38
2022-10-05T23:58:37.187Z,78.36
